• °C
  • Pobieranie danych...
wx


PRINT OUT SECTION, show »

TAF EPRA 190200Z NIL=

TAF EPSY 190230Z 1903/1912 36010KT 9999 BKN040=

TAF EPZG 190230Z 1903/1912 35006KT 9999 BKN040=



IMGW-PIB Sites